Buckpasser — WDJ6840 — position and weather

sailwx.info

Track history (hours):
 
Tides and Currents Weather Stations Pressure Air Temp Water Temp Dewpoint Dewpoint Depression Visibility Wind Speed Wind Dir Waves Ship Positions

Buckpasser

Owner: Twilight Yacht Company LLC, Framingham, MA. More information available from US FCC via Universal Licensing System and Coast Guard Vessel Documentation Center.

Last reported at 2017-Sep-19 14:14 UTC. Time now 2017-Sep-21 03:07 UTC.
Position N 44°06' W 069°06'.

Length 37 m; draft 2 m.

Type: Pleasure craft. MMSI: 368000730.

Date/timePositionNaut miles runAvg speedWind from/ knotsBaromVisibWave heightAir tempDewpointWater temp
2017-Sep-19 14:14N 44°06' W 069°06'0 0.0
2017-Sep-18 19:33N 44°06' W 069°06'0 0.0
2017-Sep-18 19:21N 44°06' W 069°06'0 0.0
2017-Sep-18 16:45N 44°06' W 069°06'0 0.0
2017-Sep-18 14:27N 44°06' W 069°06'0 0.0
2017-Sep-18 13:33N 44°06' W 069°06'0 0.0
2017-Sep-18 13:22N 44°06' W 069°06'0 0.0
2017-Sep-18 12:38N 44°06' W 069°06'0 1.6
2017-Sep-18 12:30N 44°06' W 069°06'1 1.2
2017-Sep-18 11:50N 44°06' W 069°05'2 4.4
2017-Sep-18 11:29N 44°06' W 069°03'3 5.5
2017-Sep-18 10:52N 44°03' W 069°01'2 6.4
2017-Sep-18 10:30N 44°01' W 069°01'9 5.2
2017-Sep-18 08:42N 43°55' W 069°11'97 7.7
2017-Sep-17 20:10N 42°27' W 070°04'26 9.1
2017-Sep-17 17:20N 42°02' W 070°16'  
Track history (hours):
 
Tides and Currents Weather Stations Pressure Air Temp Water Temp Dewpoint Dewpoint Depression Visibility Wind Speed Wind Dir Waves Ship Positions

Buckpasser

Owner: Twilight Yacht Company LLC, Framingham, MA. More information available from US FCC via Universal Licensing System and Coast Guard Vessel Documentation Center.

Last reported at 2017-Sep-19 14:14 UTC. Time now 2017-Sep-21 03:07 UTC.
Position N 44°06' W 069°06'.

Length 37 m; draft 2 m.

Type: Pleasure craft. MMSI: 368000730.

Date/timePositionNaut miles runAvg speedWind from/ knotsBaromVisibWave heightAir tempDewpointWater temp
2017-Sep-19 14:14N 44°06' W 069°06'0 0.0
2017-Sep-18 19:33N 44°06' W 069°06'0 0.0
2017-Sep-18 19:21N 44°06' W 069°06'0 0.0
2017-Sep-18 16:45N 44°06' W 069°06'0 0.0
2017-Sep-18 14:27N 44°06' W 069°06'0 0.0
2017-Sep-18 13:33N 44°06' W 069°06'0 0.0
2017-Sep-18 13:22N 44°06' W 069°06'0 0.0
2017-Sep-18 12:38N 44°06' W 069°06'0 1.6
2017-Sep-18 12:30N 44°06' W 069°06'1 1.2
2017-Sep-18 11:50N 44°06' W 069°05'2 4.4
2017-Sep-18 11:29N 44°06' W 069°03'3 5.5
2017-Sep-18 10:52N 44°03' W 069°01'2 6.4
2017-Sep-18 10:30N 44°01' W 069°01'9 5.2
2017-Sep-18 08:42N 43°55' W 069°11'97 7.7
2017-Sep-17 20:10N 42°27' W 070°04'26 9.1
2017-Sep-17 17:20N 42°02' W 070°16'  

Dump ship's entire track history